sensor_id;sensor_type;location;lat;lon;timestamp;P1;durP1;ratioP1;P2;durP2;ratioP2
28266;SDS011;15525;45.568;5.448;2022-12-07T00:01:31;41.85;;;16.75;;
28266;SDS011;15525;45.568;5.448;2022-12-07T00:03:59;44.45;;;17.60;;
28266;SDS011;15525;45.568;5.448;2022-12-07T00:06:33;43.97;;;15.77;;
28266;SDS011;15525;45.568;5.448;2022-12-07T00:09:00;45.80;;;17.48;;
28266;SDS011;15525;45.568;5.448;2022-12-07T00:11:26;45.30;;;16.25;;
28266;SDS011;15525;45.568;5.448;2022-12-07T00:13:55;43.53;;;15.80;;
28266;SDS011;15525;45.568;5.448;2022-12-07T00:16:24;43.20;;;16.73;;
28266;SDS011;15525;45.568;5.448;2022-12-07T00:18:50;48.05;;;16.77;;
28266;SDS011;15525;45.568;5.448;2022-12-07T00:21:18;50.35;;;17.60;;
28266;SDS011;15525;45.568;5.448;2022-12-07T00:23:45;46.83;;;17.58;;
28266;SDS011;15525;45.568;5.448;2022-12-07T00:28:38;50.72;;;18.45;;
28266;SDS011;15525;45.568;5.448;2022-12-07T00:31:04;50.35;;;18.58;;
28266;SDS011;15525;45.568;5.448;2022-12-07T00:33:33;54.45;;;18.23;;
28266;SDS011;15525;45.568;5.448;2022-12-07T00:35:59;48.10;;;16.88;;
28266;SDS011;15525;45.568;5.448;2022-12-07T00:38:26;46.38;;;16.88;;
28266;SDS011;15525;45.568;5.448;2022-12-07T00:40:56;49.50;;;17.13;;
28266;SDS011;15525;45.568;5.448;2022-12-07T00:43:23;48.58;;;17.95;;
28266;SDS011;15525;45.568;5.448;2022-12-07T00:45:48;46.83;;;16.98;;
28266;SDS011;15525;45.568;5.448;2022-12-07T00:48:14;48.90;;;17.77;;
28266;SDS011;15525;45.568;5.448;2022-12-07T00:50:39;50.47;;;17.52;;
28266;SDS011;15525;45.568;5.448;2022-12-07T00:53:04;49.22;;;17.35;;
28266;SDS011;15525;45.568;5.448;2022-12-07T00:55:33;52.20;;;17.25;;
28266;SDS011;15525;45.568;5.448;2022-12-07T00:57:59;52.58;;;17.73;;
28266;SDS011;15525;45.568;5.448;2022-12-07T01:00:25;50.67;;;16.58;;
28266;SDS011;15525;45.568;5.448;2022-12-07T01:02:50;51.30;;;18.15;;
28266;SDS011;15525;45.568;5.448;2022-12-07T01:05:15;48.05;;;16.58;;
28266;SDS011;15525;45.568;5.448;2022-12-07T01:07:41;46.70;;;17.17;;
28266;SDS011;15525;45.568;5.448;2022-12-07T01:10:06;46.55;;;17.63;;
28266;SDS011;15525;45.568;5.448;2022-12-07T01:12:32;53.70;;;17.45;;
28266;SDS011;15525;45.568;5.448;2022-12-07T01:14:57;51.55;;;17.40;;
28266;SDS011;15525;45.568;5.448;2022-12-07T01:17:23;48.22;;;17.95;;
28266;SDS011;15525;45.568;5.448;2022-12-07T01:19:48;48.47;;;16.63;;
28266;SDS011;15525;45.568;5.448;2022-12-07T01:22:13;53.63;;;17.42;;
28266;SDS011;15525;45.568;5.448;2022-12-07T01:24:39;50.28;;;17.48;;
28266;SDS011;15525;45.568;5.448;2022-12-07T01:27:04;45.15;;;16.55;;
28266;SDS011;15525;45.568;5.448;2022-12-07T01:29:30;42.08;;;16.08;;
28266;SDS011;15525;45.568;5.448;2022-12-07T01:31:55;51.00;;;17.23;;
28266;SDS011;15525;45.568;5.448;2022-12-07T01:34:20;45.88;;;16.63;;
28266;SDS011;15525;45.568;5.448;2022-12-07T01:36:46;43.03;;;15.40;;
28266;SDS011;15525;45.568;5.448;2022-12-07T01:39:11;50.08;;;16.98;;
28266;SDS011;15525;45.568;5.448;2022-12-07T01:41:38;52.28;;;17.17;;
28266;SDS011;15525;45.568;5.448;2022-12-07T01:46:45;49.45;;;16.92;;
28266;SDS011;15525;45.568;5.448;2022-12-07T01:49:14;46.90;;;16.02;;
28266;SDS011;15525;45.568;5.448;2022-12-07T01:51:47;47.50;;;17.02;;
28266;SDS011;15525;45.568;5.448;2022-12-07T01:54:16;48.47;;;16.23;;
28266;SDS011;15525;45.568;5.448;2022-12-07T01:56:44;54.63;;;17.08;;
28266;SDS011;15525;45.568;5.448;2022-12-07T01:59:16;43.70;;;16.20;;
28266;SDS011;15525;45.568;5.448;2022-12-07T02:01:43;45.97;;;16.00;;
28266;SDS011;15525;45.568;5.448;2022-12-07T02:04:09;54.22;;;17.58;;
28266;SDS011;15525;45.568;5.448;2022-12-07T02:06:36;54.35;;;17.00;;
28266;SDS011;15525;45.568;5.448;2022-12-07T02:09:03;49.30;;;18.13;;
28266;SDS011;15525;45.568;5.448;2022-12-07T02:11:29;51.38;;;16.75;;
28266;SDS011;15525;45.568;5.448;2022-12-07T02:13:55;50.17;;;17.40;;
28266;SDS011;15525;45.568;5.448;2022-12-07T02:27:24;52.50;;;17.65;;
28266;SDS011;15525;45.568;5.448;2022-12-07T02:30:03;42.53;;;16.67;;
28266;SDS011;15525;45.568;5.448;2022-12-07T02:43:26;49.33;;;17.08;;
28266;SDS011;15525;45.568;5.448;2022-12-07T02:45:59;48.10;;;17.65;;
28266;SDS011;15525;45.568;5.448;2022-12-07T02:48:29;47.15;;;17.00;;
28266;SDS011;15525;45.568;5.448;2022-12-07T02:50:58;48.40;;;17.42;;
28266;SDS011;15525;45.568;5.448;2022-12-07T02:53:34;45.67;;;16.83;;
28266;SDS011;15525;45.568;5.448;2022-12-07T02:58:46;45.17;;;17.13;;
28266;SDS011;15525;45.568;5.448;2022-12-07T03:01:20;45.50;;;17.33;;
28266;SDS011;15525;45.568;5.448;2022-12-07T03:03:54;44.00;;;15.88;;
28266;SDS011;15525;45.568;5.448;2022-12-07T03:06:42;55.00;;;18.23;;
28266;SDS011;15525;45.568;5.448;2022-12-07T03:09:20;51.00;;;18.13;;
28266;SDS011;15525;45.568;5.448;2022-12-07T03:12:18;44.13;;;16.85;;
28266;SDS011;15525;45.568;5.448;2022-12-07T03:14:46;51.08;;;17.65;;
28266;SDS011;15525;45.568;5.448;2022-12-07T03:17:26;51.38;;;18.63;;
28266;SDS011;15525;45.568;5.448;2022-12-07T03:19:58;44.30;;;16.98;;
28266;SDS011;15525;45.568;5.448;2022-12-07T03:22:28;51.25;;;17.90;;
28266;SDS011;15525;45.568;5.448;2022-12-07T03:24:59;46.17;;;17.60;;
28266;SDS011;15525;45.568;5.448;2022-12-07T03:27:32;51.17;;;17.60;;
28266;SDS011;15525;45.568;5.448;2022-12-07T03:30:02;46.95;;;17.83;;
28266;SDS011;15525;45.568;5.448;2022-12-07T03:32:39;52.97;;;18.33;;
28266;SDS011;15525;45.568;5.448;2022-12-07T03:35:44;52.50;;;18.23;;
28266;SDS011;15525;45.568;5.448;2022-12-07T03:38:15;50.33;;;17.40;;
28266;SDS011;15525;45.568;5.448;2022-12-07T03:43:25;50.70;;;17.80;;
28266;SDS011;15525;45.568;5.448;2022-12-07T03:46:10;50.50;;;18.10;;
28266;SDS011;15525;45.568;5.448;2022-12-07T03:48:46;53.90;;;19.75;;
28266;SDS011;15525;45.568;5.448;2022-12-07T03:51:26;47.15;;;17.20;;
28266;SDS011;15525;45.568;5.448;2022-12-07T03:54:04;45.60;;;16.95;;
28266;SDS011;15525;45.568;5.448;2022-12-07T03:58:57;42.22;;;15.85;;
28266;SDS011;15525;45.568;5.448;2022-12-07T04:01:23;45.63;;;17.52;;
28266;SDS011;15525;45.568;5.448;2022-12-07T04:03:49;44.92;;;17.17;;
28266;SDS011;15525;45.568;5.448;2022-12-07T04:06:14;48.45;;;17.25;;
28266;SDS011;15525;45.568;5.448;2022-12-07T04:08:40;48.15;;;18.27;;
28266;SDS011;15525;45.568;5.448;2022-12-07T04:11:05;48.63;;;17.77;;
28266;SDS011;15525;45.568;5.448;2022-12-07T04:13:31;45.63;;;17.10;;
28266;SDS011;15525;45.568;5.448;2022-12-07T04:16:16;48.65;;;17.27;;
28266;SDS011;15525;45.568;5.448;2022-12-07T04:18:41;50.65;;;17.10;;
28266;SDS011;15525;45.568;5.448;2022-12-07T04:21:07;48.35;;;17.40;;
28266;SDS011;15525;45.568;5.448;2022-12-07T04:23:32;49.67;;;18.23;;
28266;SDS011;15525;45.568;5.448;2022-12-07T04:25:57;46.38;;;17.23;;
28266;SDS011;15525;45.568;5.448;2022-12-07T04:28:23;50.85;;;18.00;;
28266;SDS011;15525;45.568;5.448;2022-12-07T04:30:48;48.40;;;18.05;;
28266;SDS011;15525;45.568;5.448;2022-12-07T04:33:14;49.88;;;18.23;;
28266;SDS011;15525;45.568;5.448;2022-12-07T04:35:39;47.45;;;17.35;;
28266;SDS011;15525;45.568;5.448;2022-12-07T04:38:07;45.17;;;18.50;;
28266;SDS011;15525;45.568;5.448;2022-12-07T04:40:32;49.35;;;18.02;;
28266;SDS011;15525;45.568;5.448;2022-12-07T04:42:57;43.60;;;17.67;;
28266;SDS011;15525;45.568;5.448;2022-12-07T04:45:23;45.00;;;16.90;;
28266;SDS011;15525;45.568;5.448;2022-12-07T04:47:48;48.35;;;18.48;;
28266;SDS011;15525;45.568;5.448;2022-12-07T04:50:14;48.67;;;18.35;;
28266;SDS011;15525;45.568;5.448;2022-12-07T04:52:39;44.28;;;17.95;;
28266;SDS011;15525;45.568;5.448;2022-12-07T04:55:04;44.20;;;17.23;;
28266;SDS011;15525;45.568;5.448;2022-12-07T04:57:30;47.08;;;17.45;;
28266;SDS011;15525;45.568;5.448;2022-12-07T04:59:55;46.67;;;17.50;;
28266;SDS011;15525;45.568;5.448;2022-12-07T05:02:21;46.20;;;17.70;;
28266;SDS011;15525;45.568;5.448;2022-12-07T05:04:46;46.25;;;17.38;;
28266;SDS011;15525;45.568;5.448;2022-12-07T05:07:11;47.17;;;17.80;;
28266;SDS011;15525;45.568;5.448;2022-12-07T05:09:37;45.97;;;17.50;;
28266;SDS011;15525;45.568;5.448;2022-12-07T05:12:02;51.47;;;18.35;;
28266;SDS011;15525;45.568;5.448;2022-12-07T05:14:28;43.10;;;17.35;;
28266;SDS011;15525;45.568;5.448;2022-12-07T05:16:53;43.35;;;16.90;;
28266;SDS011;15525;45.568;5.448;2022-12-07T05:19:19;44.58;;;17.23;;
28266;SDS011;15525;45.568;5.448;2022-12-07T05:21:44;44.22;;;17.02;;
28266;SDS011;15525;45.568;5.448;2022-12-07T05:24:11;45.95;;;17.98;;
28266;SDS011;15525;45.568;5.448;2022-12-07T05:26:38;46.13;;;17.55;;
28266;SDS011;15525;45.568;5.448;2022-12-07T05:29:03;48.00;;;18.30;;
28266;SDS011;15525;45.568;5.448;2022-12-07T05:31:30;44.92;;;17.80;;
28266;SDS011;15525;45.568;5.448;2022-12-07T05:33:55;52.13;;;18.33;;
28266;SDS011;15525;45.568;5.448;2022-12-07T05:36:21;51.95;;;18.33;;
28266;SDS011;15525;45.568;5.448;2022-12-07T05:38:47;46.00;;;18.05;;
28266;SDS011;15525;45.568;5.448;2022-12-07T05:41:14;48.63;;;17.40;;
28266;SDS011;15525;45.568;5.448;2022-12-07T05:43:59;49.78;;;17.98;;
28266;SDS011;15525;45.568;5.448;2022-12-07T05:46:25;50.00;;;18.17;;
28266;SDS011;15525;45.568;5.448;2022-12-07T05:48:50;49.92;;;17.80;;
28266;SDS011;15525;45.568;5.448;2022-12-07T05:51:16;47.47;;;17.67;;
28266;SDS011;15525;45.568;5.448;2022-12-07T05:53:41;50.92;;;17.15;;
28266;SDS011;15525;45.568;5.448;2022-12-07T05:56:07;51.05;;;18.00;;
28266;SDS011;15525;45.568;5.448;2022-12-07T05:58:32;53.63;;;19.00;;
28266;SDS011;15525;45.568;5.448;2022-12-07T06:01:16;55.45;;;19.33;;
28266;SDS011;15525;45.568;5.448;2022-12-07T06:03:42;51.42;;;19.17;;
28266;SDS011;15525;45.568;5.448;2022-12-07T06:06:07;52.85;;;18.92;;
28266;SDS011;15525;45.568;5.448;2022-12-07T06:08:33;52.60;;;19.48;;
28266;SDS011;15525;45.568;5.448;2022-12-07T06:10:58;50.33;;;18.85;;
28266;SDS011;15525;45.568;5.448;2022-12-07T06:13:42;53.78;;;19.80;;
28266;SDS011;15525;45.568;5.448;2022-12-07T06:16:07;57.33;;;20.40;;
28266;SDS011;15525;45.568;5.448;2022-12-07T06:18:33;54.30;;;19.55;;
28266;SDS011;15525;45.568;5.448;2022-12-07T06:20:58;59.33;;;21.20;;
28266;SDS011;15525;45.568;5.448;2022-12-07T06:23:23;63.15;;;21.58;;
28266;SDS011;15525;45.568;5.448;2022-12-07T06:25:49;58.75;;;20.05;;
28266;SDS011;15525;45.568;5.448;2022-12-07T06:28:14;64.88;;;22.38;;
28266;SDS011;15525;45.568;5.448;2022-12-07T06:30:40;65.07;;;22.98;;
28266;SDS011;15525;45.568;5.448;2022-12-07T06:33:05;58.58;;;21.67;;
28266;SDS011;15525;45.568;5.448;2022-12-07T06:35:32;61.60;;;21.30;;
28266;SDS011;15525;45.568;5.448;2022-12-07T06:37:58;62.88;;;22.15;;
28266;SDS011;15525;45.568;5.448;2022-12-07T06:40:23;61.08;;;20.85;;
28266;SDS011;15525;45.568;5.448;2022-12-07T06:42:49;60.78;;;21.02;;
28266;SDS011;15525;45.568;5.448;2022-12-07T06:45:14;56.88;;;19.48;;
28266;SDS011;15525;45.568;5.448;2022-12-07T06:47:39;62.92;;;20.90;;
28266;SDS011;15525;45.568;5.448;2022-12-07T06:50:05;64.03;;;20.95;;
28266;SDS011;15525;45.568;5.448;2022-12-07T06:52:32;59.58;;;20.08;;
28266;SDS011;15525;45.568;5.448;2022-12-07T06:54:58;60.47;;;20.33;;
28266;SDS011;15525;45.568;5.448;2022-12-07T06:57:24;59.30;;;20.50;;
28266;SDS011;15525;45.568;5.448;2022-12-07T06:59:50;62.75;;;21.08;;
28266;SDS011;15525;45.568;5.448;2022-12-07T07:02:15;59.08;;;20.30;;
28266;SDS011;15525;45.568;5.448;2022-12-07T07:04:41;60.22;;;19.98;;
28266;SDS011;15525;45.568;5.448;2022-12-07T07:07:07;54.05;;;18.45;;
28266;SDS011;15525;45.568;5.448;2022-12-07T07:09:32;54.58;;;20.38;;
28266;SDS011;15525;45.568;5.448;2022-12-07T07:11:57;57.50;;;21.25;;
28266;SDS011;15525;45.568;5.448;2022-12-07T07:14:23;59.22;;;20.75;;
28266;SDS011;15525;45.568;5.448;2022-12-07T07:16:48;53.95;;;20.35;;
28266;SDS011;15525;45.568;5.448;2022-12-07T07:19:14;62.72;;;20.88;;
28266;SDS011;15525;45.568;5.448;2022-12-07T07:21:39;57.75;;;19.90;;
28266;SDS011;15525;45.568;5.448;2022-12-07T07:24:04;54.85;;;19.08;;
28266;SDS011;15525;45.568;5.448;2022-12-07T07:26:30;62.42;;;20.00;;
28266;SDS011;15525;45.568;5.448;2022-12-07T07:28:56;60.38;;;20.75;;
28266;SDS011;15525;45.568;5.448;2022-12-07T07:31:21;56.95;;;20.95;;
28266;SDS011;15525;45.568;5.448;2022-12-07T07:33:46;57.72;;;21.23;;
28266;SDS011;15525;45.568;5.448;2022-12-07T07:36:12;55.85;;;21.40;;
28266;SDS011;15525;45.568;5.448;2022-12-07T07:38:38;49.55;;;19.13;;
28266;SDS011;15525;45.568;5.448;2022-12-07T07:41:04;54.08;;;20.10;;
28266;SDS011;15525;45.568;5.448;2022-12-07T07:43:29;52.83;;;20.27;;
28266;SDS011;15525;45.568;5.448;2022-12-07T07:45:55;54.42;;;19.83;;
28266;SDS011;15525;45.568;5.448;2022-12-07T07:48:20;50.00;;;20.15;;
28266;SDS011;15525;45.568;5.448;2022-12-07T07:50:47;53.63;;;20.00;;
28266;SDS011;15525;45.568;5.448;2022-12-07T07:53:13;58.58;;;21.67;;
28266;SDS011;15525;45.568;5.448;2022-12-07T07:55:38;56.45;;;22.38;;
28266;SDS011;15525;45.568;5.448;2022-12-07T07:58:04;55.65;;;21.77;;
28266;SDS011;15525;45.568;5.448;2022-12-07T08:00:29;49.13;;;19.10;;
28266;SDS011;15525;45.568;5.448;2022-12-07T08:02:54;47.80;;;18.95;;
28266;SDS011;15525;45.568;5.448;2022-12-07T08:05:20;54.83;;;20.30;;
28266;SDS011;15525;45.568;5.448;2022-12-07T08:07:45;58.58;;;20.42;;
28266;SDS011;15525;45.568;5.448;2022-12-07T08:10:11;64.43;;;21.50;;
28266;SDS011;15525;45.568;5.448;2022-12-07T08:12:39;50.55;;;20.20;;
28266;SDS011;15525;45.568;5.448;2022-12-07T08:15:29;53.78;;;20.30;;
28266;SDS011;15525;45.568;5.448;2022-12-07T08:17:55;51.30;;;19.77;;
28266;SDS011;15525;45.568;5.448;2022-12-07T08:20:21;55.25;;;20.13;;
28266;SDS011;15525;45.568;5.448;2022-12-07T08:22:47;54.75;;;20.77;;
28266;SDS011;15525;45.568;5.448;2022-12-07T08:25:12;56.25;;;20.98;;
28266;SDS011;15525;45.568;5.448;2022-12-07T08:27:37;50.58;;;19.80;;
28266;SDS011;15525;45.568;5.448;2022-12-07T08:30:03;50.00;;;18.85;;
28266;SDS011;15525;45.568;5.448;2022-12-07T08:32:29;51.50;;;20.05;;
28266;SDS011;15525;45.568;5.448;2022-12-07T08:34:54;53.45;;;20.75;;
28266;SDS011;15525;45.568;5.448;2022-12-07T08:37:20;47.42;;;18.63;;
28266;SDS011;15525;45.568;5.448;2022-12-07T08:39:45;54.55;;;20.40;;
28266;SDS011;15525;45.568;5.448;2022-12-07T08:42:11;45.65;;;20.10;;
28266;SDS011;15525;45.568;5.448;2022-12-07T08:44:36;50.22;;;19.70;;
28266;SDS011;15525;45.568;5.448;2022-12-07T08:47:02;47.45;;;18.45;;
28266;SDS011;15525;45.568;5.448;2022-12-07T08:49:32;46.50;;;17.48;;
28266;SDS011;15525;45.568;5.448;2022-12-07T08:52:04;48.40;;;19.05;;
28266;SDS011;15525;45.568;5.448;2022-12-07T08:54:30;47.83;;;18.80;;
28266;SDS011;15525;45.568;5.448;2022-12-07T08:56:58;49.80;;;19.38;;
28266;SDS011;15525;45.568;5.448;2022-12-07T08:59:24;48.13;;;17.77;;
28266;SDS011;15525;45.568;5.448;2022-12-07T09:01:49;46.75;;;19.02;;
28266;SDS011;15525;45.568;5.448;2022-12-07T09:04:15;50.50;;;19.60;;
28266;SDS011;15525;45.568;5.448;2022-12-07T09:06:41;48.90;;;18.70;;
28266;SDS011;15525;45.568;5.448;2022-12-07T09:09:06;42.60;;;17.25;;
28266;SDS011;15525;45.568;5.448;2022-12-07T09:11:34;44.38;;;17.20;;
28266;SDS011;15525;45.568;5.448;2022-12-07T09:13:59;45.97;;;18.25;;
28266;SDS011;15525;45.568;5.448;2022-12-07T09:16:25;40.92;;;17.35;;
28266;SDS011;15525;45.568;5.448;2022-12-07T09:18:50;46.05;;;17.63;;
28266;SDS011;15525;45.568;5.448;2022-12-07T09:21:16;42.53;;;17.85;;
28266;SDS011;15525;45.568;5.448;2022-12-07T09:23:41;42.70;;;17.20;;
28266;SDS011;15525;45.568;5.448;2022-12-07T09:26:07;41.17;;;18.08;;
28266;SDS011;15525;45.568;5.448;2022-12-07T09:28:33;44.45;;;18.58;;
28266;SDS011;15525;45.568;5.448;2022-12-07T09:30:58;44.78;;;17.55;;
28266;SDS011;15525;45.568;5.448;2022-12-07T09:33:24;40.75;;;16.52;;
28266;SDS011;15525;45.568;5.448;2022-12-07T09:35:50;46.83;;;18.10;;
28266;SDS011;15525;45.568;5.448;2022-12-07T09:38:16;46.17;;;17.42;;
28266;SDS011;15525;45.568;5.448;2022-12-07T09:40:43;39.97;;;16.23;;
28266;SDS011;15525;45.568;5.448;2022-12-07T09:43:22;39.58;;;16.67;;
28266;SDS011;15525;45.568;5.448;2022-12-07T09:45:53;40.97;;;16.75;;
28266;SDS011;15525;45.568;5.448;2022-12-07T09:48:21;37.40;;;16.40;;
28266;SDS011;15525;45.568;5.448;2022-12-07T09:50:50;38.67;;;17.10;;
28266;SDS011;15525;45.568;5.448;2022-12-07T09:53:24;34.58;;;15.45;;
28266;SDS011;15525;45.568;5.448;2022-12-07T09:55:52;36.83;;;15.17;;
28266;SDS011;15525;45.568;5.448;2022-12-07T09:58:23;35.95;;;15.35;;
28266;SDS011;15525;45.568;5.448;2022-12-07T10:00:53;50.67;;;21.60;;
28266;SDS011;15525;45.568;5.448;2022-12-07T10:03:25;36.47;;;16.02;;
28266;SDS011;15525;45.568;5.448;2022-12-07T10:05:53;39.15;;;17.23;;
28266;SDS011;15525;45.568;5.448;2022-12-07T10:08:19;35.75;;;16.42;;
28266;SDS011;15525;45.568;5.448;2022-12-07T10:10:46;42.55;;;17.65;;
28266;SDS011;15525;45.568;5.448;2022-12-07T10:13:16;43.63;;;19.83;;
28266;SDS011;15525;45.568;5.448;2022-12-07T10:18:19;38.95;;;16.45;;
28266;SDS011;15525;45.568;5.448;2022-12-07T10:21:08;36.72;;;16.70;;
28266;SDS011;15525;45.568;5.448;2022-12-07T10:23:43;36.65;;;15.57;;
28266;SDS011;15525;45.568;5.448;2022-12-07T10:26:52;37.58;;;15.95;;
28266;SDS011;15525;45.568;5.448;2022-12-07T10:31:47;39.75;;;17.48;;
28266;SDS011;15525;45.568;5.448;2022-12-07T10:34:23;36.22;;;16.33;;
28266;SDS011;15525;45.568;5.448;2022-12-07T10:36:51;36.97;;;17.05;;
28266;SDS011;15525;45.568;5.448;2022-12-07T10:39:19;45.15;;;20.10;;
28266;SDS011;15525;45.568;5.448;2022-12-07T10:41:56;37.17;;;16.50;;
28266;SDS011;15525;45.568;5.448;2022-12-07T10:44:27;37.42;;;16.75;;
28266;SDS011;15525;45.568;5.448;2022-12-07T10:47:04;36.40;;;16.80;;
28266;SDS011;15525;45.568;5.448;2022-12-07T10:55:19;40.10;;;18.25;;
28266;SDS011;15525;45.568;5.448;2022-12-07T11:00:57;37.60;;;17.48;;
28266;SDS011;15525;45.568;5.448;2022-12-07T11:06:24;42.58;;;18.25;;
28266;SDS011;15525;45.568;5.448;2022-12-07T11:11:55;42.83;;;17.33;;
28266;SDS011;15525;45.568;5.448;2022-12-07T11:14:28;39.72;;;16.95;;
28266;SDS011;15525;45.568;5.448;2022-12-07T11:25:43;36.17;;;15.27;;
28266;SDS011;15525;45.568;5.448;2022-12-07T11:33:47;36.65;;;16.33;;
28266;SDS011;15525;45.568;5.448;2022-12-07T11:39:31;33.72;;;15.40;;
28266;SDS011;15525;45.568;5.448;2022-12-07T11:45:02;34.58;;;15.10;;
28266;SDS011;15525;45.568;5.448;2022-12-07T11:53:10;35.17;;;15.15;;
28266;SDS011;15525;45.568;5.448;2022-12-07T11:56:06;31.42;;;14.40;;
28266;SDS011;15525;45.568;5.448;2022-12-07T12:03:45;32.03;;;14.32;;
28266;SDS011;15525;45.568;5.448;2022-12-07T12:06:12;32.90;;;14.57;;
28266;SDS011;15525;45.568;5.448;2022-12-07T12:08:43;32.30;;;14.65;;
28266;SDS011;15525;45.568;5.448;2022-12-07T12:14:09;36.42;;;15.18;;
28266;SDS011;15525;45.568;5.448;2022-12-07T12:19:41;34.30;;;14.57;;
28266;SDS011;15525;45.568;5.448;2022-12-07T12:22:21;31.92;;;14.45;;
28266;SDS011;15525;45.568;5.448;2022-12-07T12:24:52;38.60;;;15.77;;
28266;SDS011;15525;45.568;5.448;2022-12-07T12:27:23;34.17;;;14.80;;
28266;SDS011;15525;45.568;5.448;2022-12-07T12:30:01;33.15;;;15.20;;
28266;SDS011;15525;45.568;5.448;2022-12-07T12:42:58;33.13;;;14.50;;
28266;SDS011;15525;45.568;5.448;2022-12-07T12:45:28;35.78;;;15.75;;
28266;SDS011;15525;45.568;5.448;2022-12-07T12:48:04;34.13;;;14.32;;
28266;SDS011;15525;45.568;5.448;2022-12-07T12:50:49;29.80;;;13.43;;
28266;SDS011;15525;45.568;5.448;2022-12-07T12:54:04;34.60;;;15.15;;
28266;SDS011;15525;45.568;5.448;2022-12-07T12:57:19;34.33;;;14.25;;
28266;SDS011;15525;45.568;5.448;2022-12-07T12:59:40;33.13;;;15.38;;
28266;SDS011;15525;45.568;5.448;2022-12-07T13:02:20;35.10;;;14.18;;
28266;SDS011;15525;45.568;5.448;2022-12-07T13:10:32;36.67;;;15.82;;
28266;SDS011;15525;45.568;5.448;2022-12-07T13:23:23;43.80;;;20.13;;
28266;SDS011;15525;45.568;5.448;2022-12-07T13:25:55;39.85;;;16.92;;
28266;SDS011;15525;45.568;5.448;2022-12-07T13:28:26;41.72;;;17.73;;
28266;SDS011;15525;45.568;5.448;2022-12-07T13:33:48;42.13;;;19.55;;
28266;SDS011;15525;45.568;5.448;2022-12-07T13:36:23;43.38;;;18.40;;
28266;SDS011;15525;45.568;5.448;2022-12-07T13:38:57;42.10;;;18.98;;
28266;SDS011;15525;45.568;5.448;2022-12-07T13:41:26;44.58;;;20.30;;
28266;SDS011;15525;45.568;5.448;2022-12-07T13:44:12;46.92;;;20.17;;
28266;SDS011;15525;45.568;5.448;2022-12-07T13:49:32;44.88;;;20.02;;
28266;SDS011;15525;45.568;5.448;2022-12-07T13:52:45;41.50;;;19.58;;
28266;SDS011;15525;45.568;5.448;2022-12-07T13:54:59;44.25;;;19.23;;
28266;SDS011;15525;45.568;5.448;2022-12-07T13:57:31;40.70;;;18.52;;
28266;SDS011;15525;45.568;5.448;2022-12-07T13:59:59;44.10;;;18.85;;
28266;SDS011;15525;45.568;5.448;2022-12-07T14:02:27;42.72;;;19.95;;
28266;SDS011;15525;45.568;5.448;2022-12-07T14:07:48;43.63;;;18.92;;
28266;SDS011;15525;45.568;5.448;2022-12-07T14:10:27;42.10;;;19.33;;
28266;SDS011;15525;45.568;5.448;2022-12-07T14:12:59;46.10;;;20.15;;
28266;SDS011;15525;45.568;5.448;2022-12-07T14:15:29;44.33;;;20.05;;
28266;SDS011;15525;45.568;5.448;2022-12-07T14:17:57;47.55;;;19.85;;
28266;SDS011;15525;45.568;5.448;2022-12-07T14:20:29;48.65;;;21.90;;
28266;SDS011;15525;45.568;5.448;2022-12-07T14:22:56;48.40;;;22.08;;
28266;SDS011;15525;45.568;5.448;2022-12-07T14:25:23;50.65;;;21.70;;
28266;SDS011;15525;45.568;5.448;2022-12-07T14:27:55;50.72;;;21.33;;
28266;SDS011;15525;45.568;5.448;2022-12-07T14:30:23;48.65;;;20.75;;
28266;SDS011;15525;45.568;5.448;2022-12-07T14:32:52;44.35;;;19.95;;
28266;SDS011;15525;45.568;5.448;2022-12-07T14:35:19;49.13;;;20.83;;
28266;SDS011;15525;45.568;5.448;2022-12-07T14:37:45;46.67;;;20.48;;
28266;SDS011;15525;45.568;5.448;2022-12-07T14:40:17;47.95;;;21.25;;
28266;SDS011;15525;45.568;5.448;2022-12-07T14:42:44;46.70;;;21.80;;
28266;SDS011;15525;45.568;5.448;2022-12-07T14:45:19;53.20;;;24.52;;
28266;SDS011;15525;45.568;5.448;2022-12-07T14:47:48;46.45;;;21.25;;
28266;SDS011;15525;45.568;5.448;2022-12-07T14:50:14;45.35;;;21.45;;
28266;SDS011;15525;45.568;5.448;2022-12-07T14:52:43;50.00;;;23.02;;
28266;SDS011;15525;45.568;5.448;2022-12-07T14:55:16;46.63;;;21.17;;
28266;SDS011;15525;45.568;5.448;2022-12-07T14:57:51;46.65;;;21.05;;
28266;SDS011;15525;45.568;5.448;2022-12-07T15:00:17;44.83;;;19.92;;
28266;SDS011;15525;45.568;5.448;2022-12-07T15:02:44;48.00;;;20.77;;
28266;SDS011;15525;45.568;5.448;2022-12-07T15:05:11;46.67;;;20.55;;
28266;SDS011;15525;45.568;5.448;2022-12-07T15:07:38;43.92;;;18.50;;
28266;SDS011;15525;45.568;5.448;2022-12-07T15:10:04;46.95;;;20.92;;
28266;SDS011;15525;45.568;5.448;2022-12-07T15:12:30;49.78;;;21.45;;
28266;SDS011;15525;45.568;5.448;2022-12-07T15:14:56;48.92;;;21.13;;
28266;SDS011;15525;45.568;5.448;2022-12-07T15:17:21;46.03;;;21.65;;
28266;SDS011;15525;45.568;5.448;2022-12-07T15:19:46;50.65;;;24.15;;
28266;SDS011;15525;45.568;5.448;2022-12-07T15:22:12;49.40;;;22.85;;
28266;SDS011;15525;45.568;5.448;2022-12-07T15:24:37;39.55;;;17.65;;
28266;SDS011;15525;45.568;5.448;2022-12-07T15:27:03;38.55;;;17.25;;
28266;SDS011;15525;45.568;5.448;2022-12-07T15:29:29;44.13;;;19.75;;
28266;SDS011;15525;45.568;5.448;2022-12-07T15:31:54;43.33;;;18.83;;
28266;SDS011;15525;45.568;5.448;2022-12-07T15:34:20;41.63;;;18.23;;
28266;SDS011;15525;45.568;5.448;2022-12-07T15:36:46;41.28;;;17.95;;
28266;SDS011;15525;45.568;5.448;2022-12-07T15:39:11;42.17;;;18.77;;
28266;SDS011;15525;45.568;5.448;2022-12-07T15:41:37;49.75;;;21.00;;
28266;SDS011;15525;45.568;5.448;2022-12-07T15:44:02;49.72;;;24.00;;
28266;SDS011;15525;45.568;5.448;2022-12-07T15:46:47;45.78;;;20.45;;
28266;SDS011;15525;45.568;5.448;2022-12-07T15:49:15;41.63;;;18.85;;
28266;SDS011;15525;45.568;5.448;2022-12-07T15:51:42;43.88;;;19.15;;
28266;SDS011;15525;45.568;5.448;2022-12-07T15:54:13;52.33;;;21.75;;
28266;SDS011;15525;45.568;5.448;2022-12-07T15:56:42;49.22;;;20.73;;
28266;SDS011;15525;45.568;5.448;2022-12-07T15:59:08;40.50;;;19.45;;
28266;SDS011;15525;45.568;5.448;2022-12-07T16:01:33;47.72;;;20.27;;
28266;SDS011;15525;45.568;5.448;2022-12-07T16:03:59;44.75;;;19.50;;
28266;SDS011;15525;45.568;5.448;2022-12-07T16:06:24;44.22;;;18.75;;
28266;SDS011;15525;45.568;5.448;2022-12-07T16:08:50;41.35;;;18.98;;
28266;SDS011;15525;45.568;5.448;2022-12-07T16:11:15;39.83;;;18.25;;
28266;SDS011;15525;45.568;5.448;2022-12-07T16:13:41;50.03;;;23.08;;
28266;SDS011;15525;45.568;5.448;2022-12-07T16:16:07;49.30;;;21.48;;
28266;SDS011;15525;45.568;5.448;2022-12-07T16:18:37;45.67;;;20.75;;
28266;SDS011;15525;45.568;5.448;2022-12-07T16:21:03;39.70;;;19.50;;
28266;SDS011;15525;45.568;5.448;2022-12-07T16:23:29;40.90;;;18.65;;
28266;SDS011;15525;45.568;5.448;2022-12-07T16:25:54;40.50;;;19.50;;
28266;SDS011;15525;45.568;5.448;2022-12-07T16:28:20;46.63;;;20.13;;
28266;SDS011;15525;45.568;5.448;2022-12-07T16:30:45;43.30;;;20.23;;
28266;SDS011;15525;45.568;5.448;2022-12-07T16:33:11;43.75;;;20.25;;
28266;SDS011;15525;45.568;5.448;2022-12-07T16:35:40;45.65;;;22.52;;
28266;SDS011;15525;45.568;5.448;2022-12-07T16:38:06;45.35;;;22.63;;